Time;durP1;ratioP1;P1;durP2;ratioP2;P2;SDS_P1;SDS_P2;PMS_P1;PMS_P2;Temp;Humidity;BMP_temperature;BMP_pressure;BME280_temperature;BME280_humidity;BME280_pressure;Samples;Min_cycle;Max_cycle;Signal;HPM_P1;HPM_P2
2022/01/27 00:02:53;;;;;;;54.97;30.20;;;4.70;99.90;;;;;;5061129;28;20392;-79
2022/01/27 00:05:24;;;;;;;55.33;30.70;;;4.60;99.90;;;;;;5070366;28;20029;-79
2022/01/27 00:10:59;;;;;;;63.47;33.22;;;4.60;99.90;;;;;;5079127;28;20035;-79
2022/01/27 00:13:17;;;;;;;60.47;33.15;;;4.60;99.90;;;;;;5073322;28;20044;-79
2022/01/27 00:15:47;;;;;;;60.97;33.22;;;4.60;99.90;;;;;;5073410;28;20038;-79
2022/01/27 00:18:17;;;;;;;59.83;32.65;;;4.60;99.90;;;;;;5084622;28;20039;-79
2022/01/27 00:20:47;;;;;;;58.28;32.28;;;4.60;99.90;;;;;;5081320;28;20491;-78
2022/01/27 00:23:13;;;;;;;57.17;31.98;;;4.60;99.90;;;;;;5080032;28;20042;-78
2022/01/27 00:25:39;;;;;;;56.42;32.50;;;4.60;99.90;;;;;;5072269;28;20074;-78
2022/01/27 00:28:05;;;;;;;51.60;30.77;;;4.60;99.90;;;;;;5058812;28;20385;-76
2022/01/27 00:30:33;;;;;;;54.88;31.58;;;4.60;99.90;;;;;;5069001;28;20541;-76
2022/01/27 00:32:58;;;;;;;56.88;31.95;;;4.60;99.90;;;;;;5059857;28;20035;-77
2022/01/27 00:35:24;;;;;;;55.30;31.23;;;4.60;99.90;;;;;;5085842;28;20467;-77
2022/01/27 00:37:49;;;;;;;57.15;31.98;;;4.60;99.90;;;;;;5086497;28;20074;-77
2022/01/27 00:40:15;;;;;;;55.97;32.38;;;4.60;99.90;;;;;;5058129;28;20388;-78
2022/01/27 00:42:42;;;;;;;55.53;31.15;;;4.60;99.90;;;;;;5065518;28;20450;-79
2022/01/27 00:45:09;;;;;;;56.40;31.30;;;4.60;99.90;;;;;;5077427;28;20024;-79
2022/01/27 00:47:34;;;;;;;53.80;30.55;;;4.60;99.90;;;;;;5072294;28;20473;-79
2022/01/27 00:50:00;;;;;;;51.75;29.73;;;4.60;99.90;;;;;;5076806;28;20032;-79
2022/01/27 00:52:36;;;;;;;52.40;30.73;;;4.60;99.90;;;;;;5070327;28;20047;-79
2022/01/27 00:55:02;;;;;;;59.97;30.73;;;4.60;99.90;;;;;;5059952;28;20392;-79
2022/01/27 01:00:14;;;;;;;57.13;30.48;;;4.60;99.90;;;;;;5073557;28;20065;-79
2022/01/27 01:02:50;;;;;;;52.67;29.63;;;4.60;99.90;;;;;;5071996;28;20025;-79
2022/01/27 01:07:57;;;;;;;55.33;30.60;;;4.60;99.90;;;;;;5068818;28;20343;-76
2022/01/27 01:15:36;;;;;;;53.80;28.52;;;4.60;99.90;;;;;;5075719;28;20538;-79
2022/01/27 01:31:44;;;;;;;53.83;28.27;;;4.60;99.90;;;;;;5083539;28;20446;-77
2022/01/27 01:36:44;;;;;;;53.95;27.88;;;4.60;99.90;;;;;;5069689;28;20376;-77
2022/01/27 01:39:12;;;;;;;52.35;28.77;;;4.60;99.90;;;;;;5063871;28;20024;-77
2022/01/27 01:41:38;;;;;;;54.95;29.00;;;4.60;99.90;;;;;;5059216;28;20161;-76
2022/01/27 01:44:04;;;;;;;54.90;29.83;;;4.60;99.90;;;;;;5054707;28;20430;-77
2022/01/27 01:46:30;;;;;;;50.67;28.13;;;4.60;99.90;;;;;;5071042;28;20059;-77
2022/01/27 01:48:56;;;;;;;48.03;28.60;;;4.70;99.90;;;;;;5073709;28;20479;-77
2022/01/27 01:51:26;;;;;;;50.08;28.17;;;4.60;99.90;;;;;;5054485;28;20044;-78
2022/01/27 01:53:52;;;;;;;53.13;28.45;;;4.70;99.90;;;;;;5072729;28;20036;-78
2022/01/27 01:56:18;;;;;;;52.30;27.77;;;4.70;99.90;;;;;;5077857;28;20388;-79
2022/01/27 01:58:44;;;;;;;51.72;29.40;;;4.70;99.90;;;;;;5058114;28;20123;-79
2022/01/27 02:01:09;;;;;;;55.70;29.90;;;4.70;99.90;;;;;;5057900;28;20039;-79
2022/01/27 02:03:38;;;;;;;54.55;29.70;;;4.70;99.90;;;;;;5075931;28;20025;-79
2022/01/27 02:06:04;;;;;;;50.60;28.27;;;4.70;99.90;;;;;;5070022;28;20183;-76
2022/01/27 02:08:42;;;;;;;47.63;28.10;;;4.70;99.90;;;;;;5080633;28;20035;-76
2022/01/27 02:19:39;;;;;;;47.38;27.33;;;4.70;99.90;;;;;;5083536;28;20093;-78
2022/01/27 02:22:06;;;;;;;47.58;27.08;;;4.70;99.90;;;;;;5083866;28;20036;-78
2022/01/27 02:24:34;;;;;;;47.90;27.40;;;4.70;99.90;;;;;;5073794;28;20085;-78
2022/01/27 02:27:01;;;;;;;46.17;27.20;;;4.80;99.90;;;;;;5074157;28;20111;-79
2022/01/27 02:29:27;;;;;;;48.17;26.55;;;4.70;99.90;;;;;;5089459;28;20821;-79
2022/01/27 02:31:56;;;;;;;50.78;27.75;;;4.70;99.90;;;;;;5074981;28;20059;-79
2022/01/27 02:34:22;;;;;;;48.93;27.50;;;4.70;99.90;;;;;;5077509;28;20028;-79
2022/01/27 02:36:48;;;;;;;50.97;27.52;;;4.70;99.90;;;;;;5072032;28;20041;-79
2022/01/27 02:39:15;;;;;;;45.92;26.27;;;4.70;99.90;;;;;;5091656;28;20068;-79
2022/01/27 02:41:50;;;;;;;46.40;25.45;;;4.70;99.90;;;;;;5089357;28;20090;-79
2022/01/27 02:44:43;;;;;;;45.35;25.70;;;4.80;99.90;;;;;;5079621;28;20032;-76
2022/01/27 02:47:08;;;;;;;47.80;26.33;;;4.80;99.90;;;;;;5077430;28;20075;-78
2022/01/27 02:49:34;;;;;;;47.28;26.48;;;4.80;99.90;;;;;;5081057;28;20056;-78
2022/01/27 02:52:00;;;;;;;49.28;27.05;;;4.90;99.90;;;;;;5081517;28;20423;-78
2022/01/27 02:54:25;;;;;;;43.00;25.02;;;4.90;99.90;;;;;;5071699;28;20040;-78
2022/01/27 02:56:51;;;;;;;50.25;24.60;;;4.80;99.90;;;;;;5071680;28;20040;-78
2022/01/27 02:59:18;;;;;;;44.78;25.35;;;4.90;99.90;;;;;;5080260;28;20138;-79
2022/01/27 03:01:48;;;;;;;43.90;24.90;;;4.90;99.90;;;;;;5075755;28;20028;-79
2022/01/27 03:04:14;;;;;;;48.05;25.95;;;4.80;99.90;;;;;;5074181;28;20107;-79
2022/01/27 03:06:40;;;;;;;50.95;26.98;;;4.90;99.90;;;;;;5085490;28;20481;-79
2022/01/27 03:09:06;;;;;;;43.92;25.75;;;4.90;99.90;;;;;;5080608;28;20073;-79
2022/01/27 03:11:43;;;;;;;41.08;24.95;;;4.90;99.90;;;;;;5078977;28;20035;-79
2022/01/27 03:14:08;;;;;;;48.08;27.00;;;4.90;99.90;;;;;;5083965;28;20038;-79
2022/01/27 03:16:34;;;;;;;52.78;27.30;;;4.90;99.90;;;;;;5090587;28;20040;-79
2022/01/27 03:19:00;;;;;;;44.10;24.75;;;4.90;99.90;;;;;;5074597;28;20033;-79
2022/01/27 03:21:26;;;;;;;45.72;26.75;;;4.90;99.90;;;;;;5079230;28;20058;-76
2022/01/27 03:23:52;;;;;;;46.30;26.42;;;4.90;99.90;;;;;;5079926;28;20035;-76
2022/01/27 03:26:18;;;;;;;46.15;26.27;;;4.90;99.90;;;;;;5086324;28;20035;-76
2022/01/27 03:28:46;;;;;;;46.60;27.20;;;4.90;99.90;;;;;;5075818;28;20035;-76
2022/01/27 03:31:12;;;;;;;47.47;24.88;;;4.90;99.90;;;;;;5052253;28;20128;-76
2022/01/27 03:33:39;;;;;;;43.22;25.27;;;5.00;99.90;;;;;;5062441;28;20444;-75
2022/01/27 03:36:05;;;;;;;47.17;25.15;;;4.90;99.90;;;;;;5077654;28;20115;-76
2022/01/27 03:38:31;;;;;;;46.17;26.20;;;5.00;99.90;;;;;;5084632;28;20016;-76
2022/01/27 03:40:58;;;;;;;50.08;25.42;;;5.00;99.90;;;;;;5071689;28;20089;-76
2022/01/27 03:43:24;;;;;;;47.90;26.45;;;5.00;99.90;;;;;;5072080;28;20035;-76
2022/01/27 03:45:49;;;;;;;45.35;25.83;;;5.00;99.90;;;;;;5081368;28;20036;-76
2022/01/27 03:48:15;;;;;;;45.35;25.23;;;5.00;99.90;;;;;;5073950;28;20047;-76
2022/01/27 03:50:41;;;;;;;46.22;25.63;;;5.00;99.90;;;;;;5053577;28;20041;-76
2022/01/27 03:53:07;;;;;;;45.80;25.25;;;5.10;99.90;;;;;;5054611;28;20029;-76
2022/01/27 03:55:32;;;;;;;45.25;25.35;;;5.00;99.90;;;;;;5055541;28;20406;-75
2022/01/27 03:57:58;;;;;;;44.72;25.48;;;5.00;99.90;;;;;;5067179;28;20033;-76
2022/01/27 04:00:24;;;;;;;45.33;24.33;;;5.00;99.90;;;;;;5055528;28;20029;-76
2022/01/27 04:03:14;;;;;;;42.28;25.25;;;5.10;99.90;;;;;;5077176;28;20115;-76
2022/01/27 04:05:40;;;;;;;46.47;25.05;;;5.00;99.90;;;;;;5064066;28;20041;-76
2022/01/27 04:08:08;;;;;;;44.67;24.92;;;5.00;99.90;;;;;;5088348;28;20031;-76
2022/01/27 04:10:35;;;;;;;46.43;25.23;;;5.10;99.90;;;;;;5077047;28;20464;-77
2022/01/27 04:13:02;;;;;;;47.83;25.98;;;5.10;99.90;;;;;;5080325;28;20045;-77
2022/01/27 04:15:27;;;;;;;46.10;24.83;;;5.10;99.90;;;;;;5074269;28;20029;-77
2022/01/27 04:17:53;;;;;;;44.95;24.40;;;5.10;99.90;;;;;;5060451;28;20118;-77
2022/01/27 04:20:19;;;;;;;46.28;24.77;;;5.10;99.90;;;;;;5057012;28;20036;-79
2022/01/27 04:22:45;;;;;;;46.92;25.83;;;5.10;99.90;;;;;;5074733;28;20036;-79
2022/01/27 04:25:12;;;;;;;42.33;24.13;;;5.10;99.90;;;;;;5088527;28;20031;-79
2022/01/27 04:27:42;;;;;;;40.85;24.50;;;5.10;99.90;;;;;;5084665;28;20047;-79
2022/01/27 04:30:15;;;;;;;45.58;25.90;;;5.20;99.90;;;;;;5074959;28;20386;-79
2022/01/27 04:32:46;;;;;;;45.42;25.25;;;5.10;99.90;;;;;;5068902;28;20055;-79
2022/01/27 04:35:16;;;;;;;44.22;23.77;;;5.20;99.90;;;;;;5052700;28;20024;-79
2022/01/27 04:37:54;;;;;;;45.33;24.50;;;5.20;99.90;;;;;;5070883;28;20068;-79
2022/01/27 04:40:26;;;;;;;44.97;24.38;;;5.20;99.90;;;;;;5072438;28;20481;-79
2022/01/27 04:45:33;;;;;;;41.00;22.75;;;5.20;99.90;;;;;;5072419;28;20028;-79
2022/01/27 04:48:09;;;;;;;47.08;24.77;;;5.20;99.90;;;;;;5082344;28;20405;-79
2022/01/27 04:50:34;;;;;;;43.67;24.05;;;5.20;99.90;;;;;;5082702;28;20101;-79
2022/01/27 04:53:03;;;;;;;42.83;24.20;;;5.20;99.90;;;;;;5082818;28;20455;-77
2022/01/27 04:55:28;;;;;;;44.35;23.67;;;5.10;99.90;;;;;;5072459;28;20089;-77
2022/01/27 04:58:06;;;;;;;49.25;25.08;;;5.10;99.90;;;;;;5079950;28;20036;-77
2022/01/27 05:00:32;;;;;;;47.43;23.10;;;5.10;99.90;;;;;;5085633;28;20105;-77
2022/01/27 05:03:00;;;;;;;47.17;24.75;;;5.10;99.90;;;;;;5079782;28;20119;-77
2022/01/27 05:05:26;;;;;;;45.45;24.23;;;5.10;99.90;;;;;;5059024;28;20029;-77
2022/01/27 05:08:16;;;;;;;45.85;24.27;;;5.10;99.90;;;;;;5079161;28;20039;-76
2022/01/27 05:10:40;;;;;;;45.77;24.00;;;5.10;99.90;;;;;;5057499;28;20028;-77
2022/01/27 05:13:17;;;;;;;45.45;25.33;;;5.10;99.90;;;;;;5076648;28;20297;-77
2022/01/27 05:15:45;;;;;;;46.00;24.65;;;5.10;99.90;;;;;;5060162;28;20138;-77
2022/01/27 05:18:12;;;;;;;47.00;23.98;;;5.20;99.90;;;;;;5072715;28;20040;-78
2022/01/27 05:20:38;;;;;;;40.17;22.92;;;5.10;99.90;;;;;;5075877;28;20024;-78
2022/01/27 05:23:04;;;;;;;47.33;25.25;;;5.20;99.90;;;;;;5080971;28;20111;-78
2022/01/27 05:25:29;;;;;;;45.33;23.95;;;5.20;99.90;;;;;;5081164;28;20112;-75
2022/01/27 05:27:55;;;;;;;42.97;24.35;;;5.20;99.90;;;;;;5077462;28;20123;-76
2022/01/27 05:30:21;;;;;;;46.03;24.52;;;5.20;99.90;;;;;;5068690;28;20160;-76
2022/01/27 05:32:46;;;;;;;47.88;25.25;;;5.20;99.90;;;;;;5083419;28;20035;-76
2022/01/27 05:35:12;;;;;;;49.35;24.02;;;5.20;99.90;;;;;;5073354;28;20032;-76
2022/01/27 05:37:38;;;;;;;44.17;23.73;;;5.20;99.90;;;;;;5074659;28;20515;-76
2022/01/27 05:40:04;;;;;;;49.88;24.05;;;5.10;99.90;;;;;;5060282;28;20484;-76
2022/01/27 05:42:30;;;;;;;50.97;26.05;;;5.10;99.90;;;;;;5075159;28;20452;-75
2022/01/27 05:44:55;;;;;;;44.78;24.40;;;5.10;99.90;;;;;;5078391;28;20035;-76
2022/01/27 05:47:21;;;;;;;44.97;23.40;;;5.10;99.90;;;;;;5080352;28;20488;-76
2022/01/27 05:49:46;;;;;;;48.47;24.77;;;5.10;99.90;;;;;;5051610;28;20092;-76
2022/01/27 05:52:12;;;;;;;45.55;24.05;;;5.10;99.90;;;;;;5074233;28;20412;-76
2022/01/27 05:54:37;;;;;;;41.83;22.73;;;5.10;99.90;;;;;;5076492;28;20024;-76
2022/01/27 05:57:03;;;;;;;51.38;25.45;;;5.10;99.90;;;;;;5076697;28;20442;-76
2022/01/27 05:59:29;;;;;;;44.13;23.27;;;5.10;99.90;;;;;;5073490;28;20065;-76
2022/01/27 06:01:55;;;;;;;46.20;24.63;;;5.10;99.90;;;;;;5058683;28;20029;-77
2022/01/27 06:04:20;;;;;;;45.45;22.17;;;5.10;99.90;;;;;;5060080;28;20120;-78
2022/01/27 06:06:46;;;;;;;47.55;24.80;;;5.10;99.90;;;;;;5085646;28;20032;-78
2022/01/27 06:09:11;;;;;;;50.40;24.67;;;5.10;99.90;;;;;;5053892;28;20469;-78
2022/01/27 06:11:37;;;;;;;49.22;25.05;;;5.10;99.90;;;;;;5078412;28;20085;-77
2022/01/27 06:14:03;;;;;;;44.97;24.10;;;5.10;99.90;;;;;;5057108;28;20043;-77
2022/01/27 06:16:29;;;;;;;49.00;24.55;;;5.00;99.90;;;;;;5057606;28;20036;-77
2022/01/27 06:18:55;;;;;;;52.60;26.00;;;5.00;99.90;;;;;;5080506;28;20032;-77
2022/01/27 06:21:21;;;;;;;52.58;26.30;;;5.00;99.90;;;;;;5071966;28;20036;-77
2022/01/27 06:23:46;;;;;;;48.30;24.63;;;4.90;99.90;;;;;;5059125;28;20028;-77
2022/01/27 06:26:12;;;;;;;51.40;25.92;;;5.00;99.90;;;;;;5050853;28;20029;-77
2022/01/27 06:28:38;;;;;;;44.90;25.15;;;5.00;99.90;;;;;;5052117;28;20028;-77
2022/01/27 06:31:04;;;;;;;47.13;24.92;;;5.10;99.90;;;;;;5080859;28;20044;-79
2022/01/27 06:33:30;;;;;;;54.35;26.20;;;5.10;99.90;;;;;;5077796;28;20464;-79
2022/01/27 06:35:55;;;;;;;54.78;26.25;;;5.10;99.90;;;;;;5062521;28;20473;-79
2022/01/27 06:38:21;;;;;;;47.40;24.23;;;5.20;99.90;;;;;;5079124;28;20504;-79
2022/01/27 06:40:47;;;;;;;48.67;26.20;;;5.20;99.90;;;;;;5069254;28;20040;-79
2022/01/27 06:43:14;;;;;;;50.45;26.15;;;5.30;99.90;;;;;;5082440;28;20029;-78
2022/01/27 06:45:39;;;;;;;50.05;25.92;;;5.40;99.90;;;;;;5075774;28;20025;-78
2022/01/27 06:48:05;;;;;;;53.65;27.95;;;5.30;99.90;;;;;;5050454;28;20040;-79
2022/01/27 06:50:32;;;;;;;56.67;26.13;;;5.40;99.90;;;;;;5077109;28;20036;-79
2022/01/27 06:52:58;;;;;;;54.53;27.08;;;5.40;99.90;;;;;;5068649;28;20033;-78
2022/01/27 06:55:24;;;;;;;50.58;26.27;;;5.40;99.90;;;;;;5070306;28;20048;-78
2022/01/27 06:57:50;;;;;;;52.95;26.58;;;5.40;99.90;;;;;;5072001;28;20032;-78
2022/01/27 07:00:16;;;;;;;48.08;24.90;;;5.50;99.90;;;;;;5070925;28;20366;-78
2022/01/27 07:02:42;;;;;;;56.33;26.70;;;5.50;99.90;;;;;;5071045;28;20044;-79
2022/01/27 07:05:09;;;;;;;55.38;27.42;;;5.50;99.90;;;;;;5072208;28;20311;-79
2022/01/27 07:07:35;;;;;;;56.75;29.15;;;5.50;99.90;;;;;;5072147;28;20028;-78
2022/01/27 07:10:00;;;;;;;60.90;29.00;;;5.50;99.90;;;;;;5054236;28;20036;-78
2022/01/27 07:12:26;;;;;;;56.08;29.08;;;5.60;99.90;;;;;;5072374;28;20037;-78
2022/01/27 07:14:54;;;;;;;62.80;29.25;;;5.60;99.90;;;;;;5070991;28;20469;-78
2022/01/27 07:17:20;;;;;;;63.85;29.83;;;5.50;99.90;;;;;;5072183;28;20040;-78
2022/01/27 07:19:46;;;;;;;56.03;28.88;;;5.50;99.90;;;;;;5054443;28;20144;-78
2022/01/27 07:22:12;;;;;;;69.35;32.17;;;5.40;99.90;;;;;;5070699;28;20104;-78
2022/01/27 07:24:37;;;;;;;72.50;31.98;;;5.50;99.90;;;;;;5054030;28;20420;-78
2022/01/27 07:27:03;;;;;;;69.75;32.20;;;5.50;99.90;;;;;;5070511;28;20040;-78
2022/01/27 07:29:29;;;;;;;69.90;32.70;;;5.40;99.90;;;;;;5071852;28;20381;-78
2022/01/27 07:31:54;;;;;;;69.68;32.10;;;5.50;99.90;;;;;;5070479;28;20118;-78
2022/01/27 07:34:20;;;;;;;67.25;32.20;;;5.50;99.90;;;;;;5070609;28;20723;-78
2022/01/27 07:36:46;;;;;;;71.57;32.80;;;5.40;99.90;;;;;;5050089;28;20044;-78
2022/01/27 07:39:16;;;;;;;70.50;31.65;;;5.50;99.90;;;;;;5051887;28;20029;-78
2022/01/27 07:41:44;;;;;;;73.47;32.13;;;5.50;99.90;;;;;;5052125;28;20029;-78
2022/01/27 07:44:10;;;;;;;72.68;32.53;;;5.50;99.90;;;;;;5051605;28;20056;-78
2022/01/27 07:46:36;;;;;;;73.93;34.08;;;5.50;99.90;;;;;;5043474;28;20029;-78
2022/01/27 07:49:02;;;;;;;70.55;32.75;;;5.50;99.90;;;;;;5071634;28;20073;-79
2022/01/27 07:51:28;;;;;;;72.40;33.10;;;5.50;99.90;;;;;;5070037;28;20109;-79
2022/01/27 07:53:53;;;;;;;71.40;31.67;;;5.50;99.90;;;;;;5053355;28;20476;-79
2022/01/27 07:56:19;;;;;;;74.45;33.90;;;5.50;99.90;;;;;;5069608;28;20103;-79
2022/01/27 07:58:45;;;;;;;77.85;32.63;;;5.60;99.90;;;;;;5069895;28;20033;-78
2022/01/27 08:01:10;;;;;;;73.35;33.25;;;5.60;99.90;;;;;;5069762;28;20035;-78
2022/01/27 08:03:37;;;;;;;70.53;33.08;;;5.60;99.90;;;;;;5069671;28;20029;-78
2022/01/27 08:06:04;;;;;;;70.28;32.85;;;5.60;99.90;;;;;;5068670;28;20378;-79
2022/01/27 08:08:30;;;;;;;66.93;31.58;;;5.60;99.90;;;;;;5069888;28;20040;-79
2022/01/27 08:10:56;;;;;;;63.38;31.25;;;5.70;99.90;;;;;;5052923;28;20028;-78
2022/01/27 08:13:22;;;;;;;70.20;31.48;;;5.70;99.90;;;;;;5069492;28;20040;-78
2022/01/27 08:15:47;;;;;;;71.40;32.92;;;5.70;99.90;;;;;;5069157;28;20607;-78
2022/01/27 08:18:13;;;;;;;65.15;32.63;;;5.70;99.90;;;;;;5052637;28;20397;-78
2022/01/27 08:20:40;;;;;;;72.30;30.75;;;5.70;99.90;;;;;;5052660;28;20029;-78
2022/01/27 08:23:06;;;;;;;67.85;30.60;;;5.70;99.90;;;;;;5069510;28;20032;-78
2022/01/27 08:25:33;;;;;;;63.25;29.60;;;5.70;99.90;;;;;;5069140;28;20485;-78
2022/01/27 08:28:04;;;;;;;71.38;31.92;;;5.80;99.90;;;;;;5070278;28;20052;-79
2022/01/27 08:30:38;;;;;;;72.75;32.45;;;5.80;99.90;;;;;;5070446;28;20048;-79
2022/01/27 08:33:13;;;;;;;61.83;30.77;;;5.90;99.90;;;;;;5069432;28;20428;-78
2022/01/27 08:35:39;;;;;;;66.15;30.92;;;5.90;99.90;;;;;;5070448;28;20116;-78
2022/01/27 08:38:05;;;;;;;65.45;31.80;;;5.80;99.90;;;;;;5070141;28;20127;-78
2022/01/27 08:40:30;;;;;;;72.93;32.42;;;5.90;99.90;;;;;;5070441;28;20043;-79
2022/01/27 08:42:57;;;;;;;74.63;32.78;;;5.90;99.90;;;;;;5069042;28;20315;-79
2022/01/27 08:45:24;;;;;;;84.63;35.50;;;5.90;99.90;;;;;;5068799;28;20427;-79
2022/01/27 08:47:51;;;;;;;83.05;36.55;;;5.90;99.90;;;;;;5068554;28;20110;-79
2022/01/27 08:50:20;;;;;;;90.68;37.15;;;5.90;99.90;;;;;;5070047;28;20504;-79
2022/01/27 08:52:47;;;;;;;79.95;34.92;;;5.90;99.90;;;;;;5068795;28;20040;-79
2022/01/27 08:55:13;;;;;;;83.50;35.75;;;5.90;99.90;;;;;;5069956;28;20111;-79
2022/01/27 08:57:39;;;;;;;97.63;40.00;;;5.80;99.90;;;;;;5069637;28;20454;-79
2022/01/27 09:00:07;;;;;;;92.00;38.35;;;5.80;99.90;;;;;;5068790;28;20419;-79
2022/01/27 09:02:33;;;;;;;88.65;35.92;;;5.80;99.90;;;;;;5068758;28;20082;-79
2022/01/27 09:04:59;;;;;;;93.03;39.28;;;5.80;99.90;;;;;;5051900;28;20038;-79
2022/01/27 09:07:24;;;;;;;93.80;40.33;;;5.80;99.90;;;;;;5069576;28;20103;-79
2022/01/27 09:09:50;;;;;;;93.22;38.97;;;5.80;99.90;;;;;;5069528;28;20108;-79
2022/01/27 09:12:16;;;;;;;102.25;39.53;;;5.90;99.90;;;;;;5051251;28;20405;-79
2022/01/27 09:14:42;;;;;;;98.05;38.67;;;5.80;99.90;;;;;;5068319;28;20025;-79
2022/01/27 09:17:13;;;;;;;97.25;38.38;;;5.90;99.90;;;;;;5050934;28;20037;-79
2022/01/27 09:19:41;;;;;;;116.85;41.65;;;5.90;99.90;;;;;;5068326;28;20066;-79
2022/01/27 09:22:12;;;;;;;102.25;39.67;;;5.90;99.90;;;;;;5068037;28;20115;-79
2022/01/27 09:24:57;;;;;;;91.53;37.58;;;5.90;99.90;;;;;;5069337;28;20104;-79
2022/01/27 09:27:25;;;;;;;108.55;41.40;;;5.90;99.90;;;;;;5067701;28;20028;-79
2022/01/27 09:29:52;;;;;;;99.90;40.45;;;5.90;99.90;;;;;;5069564;28;20032;-79
2022/01/27 09:32:19;;;;;;;97.85;39.45;;;5.90;99.90;;;;;;5069123;28;20131;-79
2022/01/27 09:34:46;;;;;;;104.35;39.72;;;6.00;99.90;;;;;;5068105;28;20203;-79
2022/01/27 09:37:13;;;;;;;96.07;37.92;;;5.90;99.90;;;;;;5051277;28;20028;-80
2022/01/27 09:39:39;;;;;;;81.55;34.70;;;5.90;99.90;;;;;;5067396;28;20453;-79
2022/01/27 09:42:07;;;;;;;102.18;40.05;;;6.00;99.90;;;;;;5067929;28;20033;-79
2022/01/27 09:44:33;;;;;;;95.47;38.55;;;6.00;99.90;;;;;;5069231;28;20030;-79
2022/01/27 09:47:03;;;;;;;93.68;37.63;;;6.00;99.90;;;;;;5050790;28;20063;-79
2022/01/27 09:49:40;;;;;;;92.55;36.33;;;6.10;99.90;;;;;;5049084;28;20025;-79
2022/01/27 09:52:06;;;;;;;99.78;38.78;;;6.10;99.90;;;;;;5048047;28;20429;-79
2022/01/27 09:54:32;;;;;;;109.20;40.05;;;6.10;99.90;;;;;;5047791;28;20029;-79
2022/01/27 09:56:58;;;;;;;93.70;39.70;;;6.20;99.90;;;;;;5049383;28;20025;-79
2022/01/27 09:59:24;;;;;;;100.93;39.47;;;6.20;99.90;;;;;;5067238;28;20024;-79
2022/01/27 10:01:54;;;;;;;105.78;39.00;;;6.20;99.90;;;;;;5067998;28;20132;-79
2022/01/27 10:04:19;;;;;;;118.35;42.42;;;6.20;99.90;;;;;;5069292;28;20401;-79
2022/01/27 10:06:46;;;;;;;82.57;34.95;;;6.30;99.90;;;;;;5067879;28;20036;-79
2022/01/27 10:09:29;;;;;;;104.55;39.83;;;6.30;99.90;;;;;;5067075;28;20500;-79
2022/01/27 10:11:55;;;;;;;98.20;39.95;;;6.30;99.90;;;;;;5067570;28;20039;-79
2022/01/27 10:14:32;;;;;;;98.68;38.83;;;6.30;99.90;;;;;;5067540;28;20419;-79
2022/01/27 10:17:03;;;;;;;96.90;36.40;;;6.40;99.90;;;;;;5067490;28;20132;-79
2022/01/27 10:19:30;;;;;;;78.07;34.20;;;6.40;99.90;;;;;;5051238;28;20031;-79
2022/01/27 10:22:10;;;;;;;97.47;37.95;;;6.40;99.90;;;;;;5051117;28;20416;-79
2022/01/27 10:24:36;;;;;;;75.93;33.83;;;6.50;99.90;;;;;;5068805;28;20025;-79
2022/01/27 10:32:45;;;;;;;85.70;35.60;;;6.50;99.90;;;;;;5072898;28;20044;-79
2022/01/27 10:35:13;;;;;;;93.40;37.30;;;6.50;99.90;;;;;;5072921;28;20025;-79
2022/01/27 10:38:08;;;;;;;76.45;32.25;;;6.60;99.90;;;;;;5071158;28;20044;-79
2022/01/27 10:40:35;;;;;;;104.15;37.75;;;6.60;99.90;;;;;;5072467;28;20028;-79
2022/01/27 10:43:22;;;;;;;81.07;34.00;;;6.60;99.90;;;;;;5071272;28;20020;-79
2022/01/27 10:46:10;;;;;;;85.32;35.97;;;6.70;99.90;;;;;;5071189;28;20035;-80
2022/01/27 10:48:51;;;;;;;91.85;34.42;;;6.70;99.90;;;;;;5072295;28;20144;-80
2022/01/27 10:51:43;;;;;;;76.07;31.83;;;6.70;99.90;;;;;;5072489;28;20063;-79
2022/01/27 10:54:05;;;;;;;79.38;33.45;;;6.80;99.90;;;;;;5071772;28;20040;-80
2022/01/27 10:56:40;;;;;;;71.88;31.90;;;6.80;99.90;;;;;;5054167;28;20039;-79
2022/01/27 10:59:11;;;;;;;71.07;32.55;;;6.90;99.90;;;;;;5070866;28;20025;-79
2022/01/27 11:01:40;;;;;;;74.47;31.13;;;6.90;99.90;;;;;;5070951;28;20058;-80
2022/01/27 11:04:08;;;;;;;61.30;29.00;;;6.90;99.90;;;;;;5072331;28;20104;-79
2022/01/27 11:06:36;;;;;;;59.13;26.98;;;7.00;99.90;;;;;;5071797;28;20028;-79
2022/01/27 11:09:08;;;;;;;67.70;30.05;;;7.00;99.90;;;;;;5070556;28;20044;-79
2022/01/27 11:11:35;;;;;;;53.45;27.33;;;7.10;99.90;;;;;;5070708;28;20455;-79
2022/01/27 11:14:02;;;;;;;57.42;27.33;;;7.10;99.90;;;;;;5070705;28;20072;-79
2022/01/27 11:16:41;;;;;;;53.88;25.42;;;7.10;99.90;;;;;;5071952;28;20423;-79
2022/01/27 11:21:47;;;;;;;52.47;25.67;;;7.10;99.90;;;;;;5070315;28;20118;-79
2022/01/27 11:24:28;;;;;;;47.47;24.27;;;7.10;99.90;;;;;;5071713;28;20016;-78
2022/01/27 11:26:57;;;;;;;52.13;25.58;;;7.20;99.90;;;;;;5082318;28;20082;-79
2022/01/27 11:29:24;;;;;;;;;;;7.20;99.90;;;;;;5073064;28;20037;-79
2022/01/27 11:32:08;;;;;;;50.83;25.02;;;7.20;99.90;;;;;;5077069;28;19928;-78
2022/01/27 11:34:55;;;;;;;55.25;26.15;;;7.20;99.90;;;;;;5070032;28;20823;-79
2022/01/27 11:37:35;;;;;;;45.97;25.48;;;7.10;99.90;;;;;;5070567;28;20044;-79
2022/01/27 11:40:04;;;;;;;43.65;22.80;;;7.20;99.90;;;;;;5071198;28;20025;-79
2022/01/27 11:42:37;;;;;;;;;;;7.20;99.90;;;;;;5071573;28;20108;-79
2022/01/27 11:45:37;;;;;;;48.97;25.65;;;7.20;99.90;;;;;;5071448;28;19916;-79
2022/01/27 11:48:19;;;;;;;44.85;24.45;;;7.20;99.90;;;;;;5036539;28;20127;-79
2022/01/27 11:51:09;;;;;;;47.28;23.70;;;7.30;99.90;;;;;;5071129;28;20020;-78
2022/01/27 11:54:01;;;;;;;44.35;24.75;;;7.30;99.90;;;;;;5071655;28;20031;-78
2022/01/27 11:56:28;;;;;;;47.33;23.80;;;7.30;99.90;;;;;;5055168;28;20477;-78
2022/01/27 11:58:56;;;;;;;42.22;22.88;;;7.30;99.90;;;;;;5071241;28;20028;-79
2022/01/27 12:01:29;;;;;;;39.42;22.67;;;7.30;99.90;;;;;;5070057;28;20494;-79
2022/01/27 12:04:05;;;;;;;42.85;22.95;;;7.30;99.90;;;;;;5069717;28;20037;-79
2022/01/27 12:06:34;;;;;;;41.03;23.73;;;7.40;99.90;;;;;;5083850;28;20115;-79
2022/01/27 12:09:18;;;;;;;39.65;22.52;;;7.40;99.90;;;;;;5072390;28;20099;-79
2022/01/27 12:11:59;;;;;;;40.30;22.80;;;7.40;99.90;;;;;;5070965;28;20123;-79
2022/01/27 12:14:34;;;;;;;41.22;23.30;;;7.40;99.90;;;;;;5055544;28;20135;-79
2022/01/27 12:17:09;;;;;;;40.78;22.42;;;7.50;99.90;;;;;;5069499;28;20493;-79
2022/01/27 12:19:50;;;;;;;43.22;25.55;;;7.50;99.90;;;;;;5069797;28;20161;-79
2022/01/27 12:22:16;;;;;;;44.78;25.30;;;7.50;99.90;;;;;;5070168;28;20116;-79
2022/01/27 12:24:59;;;;;;;45.50;25.33;;;7.50;99.90;;;;;;5069761;28;20020;-80
2022/01/27 12:27:27;;;;;;;50.00;26.60;;;7.50;99.90;;;;;;5070639;28;20032;-80
2022/01/27 12:29:55;;;;;;;52.38;28.02;;;7.60;99.90;;;;;;5069596;28;20025;-79
2022/01/27 12:32:32;;;;;;;51.50;26.25;;;7.60;99.90;;;;;;5070626;28;20131;-79
2022/01/27 12:35:07;;;;;;;57.45;29.27;;;7.60;99.90;;;;;;5070857;28;20025;-79
2022/01/27 12:37:47;;;;;;;48.28;27.75;;;7.60;99.90;;;;;;5088197;28;20036;-79
2022/01/27 12:40:22;;;;;;;48.97;27.33;;;7.60;99.90;;;;;;5070087;28;20048;-78
2022/01/27 12:42:59;;;;;;;54.00;28.38;;;7.60;99.90;;;;;;5068607;28;20028;-79
2022/01/27 12:45:29;;;;;;;49.58;27.55;;;7.60;99.90;;;;;;5069806;28;20120;-78
2022/01/27 12:47:56;;;;;;;46.15;26.38;;;7.60;99.90;;;;;;5070215;28;20032;-78
2022/01/27 12:50:22;;;;;;;47.05;26.45;;;7.60;99.90;;;;;;5048762;28;20037;-78
2022/01/27 12:52:53;;;;;;;54.92;29.52;;;7.70;99.90;;;;;;5068732;28;20024;-78
2022/01/27 12:55:28;;;;;;;43.35;24.77;;;7.70;99.90;;;;;;5073905;28;20024;-79
2022/01/27 12:57:56;;;;;;;44.63;25.42;;;7.70;99.90;;;;;;5080304;28;20024;-80
2022/01/27 13:00:23;;;;;;;46.15;24.60;;;7.80;99.90;;;;;;5072962;28;20140;-80
2022/01/27 13:02:48;;;;;;;46.65;27.15;;;7.80;99.90;;;;;;5072129;28;20040;-80
2022/01/27 13:05:14;;;;;;;43.90;23.50;;;7.80;99.90;;;;;;5072894;28;20032;-80
2022/01/27 13:07:42;;;;;;;35.30;23.70;;;7.80;99.90;;;;;;5051661;28;20044;-80
2022/01/27 13:10:15;;;;;;;45.97;26.73;;;7.80;99.90;;;;;;5068411;28;20040;-80
2022/01/27 13:12:48;;;;;;;46.22;26.65;;;7.90;99.90;;;;;;5068013;28;20040;-79
2022/01/27 13:15:22;;;;;;;53.05;28.08;;;7.80;99.90;;;;;;5060167;28;20038;-79
2022/01/27 13:17:58;;;;;;;52.20;26.58;;;7.90;99.90;;;;;;5087845;28;20070;-80
2022/01/27 13:23:01;;;;;;;52.20;25.85;;;7.90;99.90;;;;;;5069294;28;20063;-79
2022/01/27 13:25:45;;;;;;;46.22;26.15;;;8.00;99.90;;;;;;5069185;28;20024;-79
2022/01/27 13:28:26;;;;;;;41.40;24.73;;;8.00;99.90;;;;;;5069804;28;20032;-79
2022/01/27 13:31:00;;;;;;;44.22;26.70;;;8.10;99.90;;;;;;5082153;28;20059;-79
2022/01/27 13:33:27;;;;;;;39.92;24.95;;;8.10;99.90;;;;;;5089764;28;20050;-79
2022/01/27 13:35:55;;;;;;;45.03;26.08;;;8.10;99.90;;;;;;5074132;28;20028;-79
2022/01/27 13:38:28;;;;;;;42.53;23.75;;;8.10;99.90;;;;;;5077989;28;20029;-79
2022/01/27 13:41:23;;;;;;;47.28;24.80;;;8.20;99.90;;;;;;5069823;28;20019;-79